Time;durP1;ratioP1;P1;durP2;ratioP2;P2;SDS_P1;SDS_P2;PMS_P1;PMS_P2;Temp;Humidity;BMP_temperature;BMP_pressure;BME280_temperature;BME280_humidity;BME280_pressure;Samples;Min_cycle;Max_cycle;Signal;HPM_P1;HPM_P2
2022/05/29 00:00:39;;;;;;;;;;;17.00;56.20;;;;;;20807264;28;19971;-76
2022/05/29 00:10:40;;;;;;;;;;;16.90;56.20;;;;;;20814838;28;20299;-77
2022/05/29 00:20:41;;;;;;;;;;;16.90;56.40;;;;;;20708989;28;19921;-78
2022/05/29 00:30:41;;;;;;;;;;;16.90;56.50;;;;;;20718995;28;20396;-76
2022/05/29 00:40:54;;;;;;;;;;;16.90;56.70;;;;;;20755588;28;19921;-77
2022/05/29 00:50:55;;;;;;;;;;;16.90;56.80;;;;;;20816616;28;19909;-77
2022/05/29 01:00:55;;;;;;;;;;;16.90;56.90;;;;;;20814672;28;19917;-77
2022/05/29 01:11:01;;;;;;;;;;;16.90;57.10;;;;;;20813051;28;19923;-77
2022/05/29 01:21:20;;;;;;;;;;;16.80;57.10;;;;;;20796953;28;19921;-77
2022/05/29 01:31:40;;;;;;;;;;;16.90;57.20;;;;;;20830035;28;19959;-78
2022/05/29 01:41:44;;;;;;;;;;;16.90;57.30;;;;;;20811272;28;20389;-77
2022/05/29 01:52:03;;;;;;;;;;;16.90;57.40;;;;;;20794685;28;19913;-78
2022/05/29 02:02:06;;;;;;;;;;;16.90;57.50;;;;;;20827416;28;19917;-77
2022/05/29 02:12:07;;;;;;;;;;;16.80;57.60;;;;;;20790610;28;20456;-77
2022/05/29 02:22:16;;;;;;;;;;;16.80;57.70;;;;;;20735483;28;19917;-77
2022/05/29 02:32:20;;;;;;;;;;;16.80;57.80;;;;;;20742755;28;19909;-79
2022/05/29 02:42:30;;;;;;;;;;;16.80;57.90;;;;;;20741920;28;20074;-78
2022/05/29 02:52:30;;;;;;;;;;;16.70;58.00;;;;;;20798598;28;19924;-78
2022/05/29 03:03:06;;;;;;;;;;;16.80;58.10;;;;;;20805192;28;19924;-77
2022/05/29 03:13:08;;;;;;;;;;;16.80;58.20;;;;;;20756172;28;20258;-78
2022/05/29 03:23:18;;;;;;;;;;;16.80;58.20;;;;;;20837149;28;19924;-77
2022/05/29 03:33:19;;;;;;;;;;;16.80;58.30;;;;;;20805583;28;19946;-78
2022/05/29 03:43:19;;;;;;;;;;;16.80;58.40;;;;;;20831381;28;20395;-78
2022/05/29 03:53:20;;;;;;;;;;;16.80;58.40;;;;;;20846856;28;19917;-78
2022/05/29 04:03:20;;;;;;;;;;;16.80;58.50;;;;;;20847305;28;19927;-78
2022/05/29 04:13:21;;;;;;;;;;;16.80;58.50;;;;;;20829248;28;19956;-78
2022/05/29 04:23:21;;;;;;;;;;;16.70;58.50;;;;;;20784932;28;19982;-78
2022/05/29 04:33:22;;;;;;;;;;;16.80;58.60;;;;;;20731836;28;19963;-78
2022/05/29 04:43:22;;;;;;;;;;;16.70;58.70;;;;;;20755635;28;19921;-78
2022/05/29 04:53:23;;;;;;;;;;;16.70;58.70;;;;;;20799094;28;19909;-78
2022/05/29 05:03:24;;;;;;;;;;;16.70;58.70;;;;;;20798433;28;20296;-78
2022/05/29 05:13:24;;;;;;;;;;;16.70;58.70;;;;;;20797041;28;19940;-78
2022/05/29 05:23:27;;;;;;;;;;;16.70;58.80;;;;;;20797020;28;19924;-78
2022/05/29 05:33:27;;;;;;;;;;;16.70;58.80;;;;;;20796186;28;19909;-78
2022/05/29 05:43:28;;;;;;;;;;;16.70;58.90;;;;;;20811553;28;20350;-78
2022/05/29 05:53:28;;;;;;;;;;;16.70;58.90;;;;;;20811478;28;19909;-78
2022/05/29 06:03:29;;;;;;;;;;;16.70;59.00;;;;;;20793339;28;19917;-77
2022/05/29 06:13:29;;;;;;;;;;;16.70;59.10;;;;;;20810236;28;19974;-78
2022/05/29 06:23:30;;;;;;;;;;;16.70;59.00;;;;;;20791916;28;19968;-77
2022/05/29 06:33:31;;;;;;;;;;;16.60;59.10;;;;;;20737922;28;20324;-77
2022/05/29 06:43:32;;;;;;;;;;;16.70;59.20;;;;;;20708658;28;20008;-77
2022/05/29 06:53:32;;;;;;;;;;;16.60;59.20;;;;;;20694567;28;20301;-78
2022/05/29 07:13:52;;;;;;;;;;;16.70;59.40;;;;;;20738140;28;20313;-73
2022/05/29 07:23:53;;;;;;;;;;;16.70;59.40;;;;;;21193073;22;19974;-77
2022/05/29 07:33:53;;;;;;;;;;;16.70;59.50;;;;;;20885642;28;19909;-73
2022/05/29 07:43:54;;;;;;;;;;;16.70;59.50;;;;;;20881776;28;20011;-73
2022/05/29 07:53:55;;;;;;;;;;;16.70;59.60;;;;;;20883330;28;19953;-73
2022/05/29 08:03:55;;;;;;;;;;;16.60;59.60;;;;;;20865634;28;19920;-73
2022/05/29 08:13:56;;;;;;;;;;;16.70;59.80;;;;;;20867255;28;19912;-74
2022/05/29 08:34:16;;;;;;;;;;;16.70;59.90;;;;;;20885530;28;20281;-75
2022/05/29 08:44:17;;;;;;;;;;;16.70;60.00;;;;;;20888700;28;19927;-74
2022/05/29 08:54:20;;;;;;;;;;;16.60;60.20;;;;;;20881248;28;19912;-74
2022/05/29 09:04:26;;;;;;;;;;;16.70;60.30;;;;;;20896527;28;19998;-74
2022/05/29 09:14:33;;;;;;;;;;;16.70;60.30;;;;;;20879150;28;19927;-74
2022/05/29 09:24:37;;;;;;;;;;;16.60;60.20;;;;;;20881827;28;19970;-74
2022/05/29 09:34:37;;;;;;;;;;;16.70;60.20;;;;;;20859343;28;19948;-75
2022/05/29 09:44:38;;;;;;;;;;;16.70;60.20;;;;;;20889919;28;19947;-80
2022/05/29 09:54:44;;;;;;;;;;;16.70;60.10;;;;;;20898810;28;20276;-77
2022/05/29 10:04:45;;;;;;;;;;;17.00;59.90;;;;;;20879377;28;19921;-78
2022/05/29 10:14:45;;;;;;;;;;;17.10;59.70;;;;;;20800032;28;19909;-74
2022/05/29 10:24:46;;;;;;;;;;;17.10;59.70;;;;;;20876849;28;19975;-74
2022/05/29 10:34:46;;;;;;;;;;;17.00;59.80;;;;;;20848429;28;19989;-72
2022/05/29 10:44:47;;;;;;;;;;;16.90;59.90;;;;;;20872783;28;19913;-76
2022/05/29 10:55:07;;;;;;;;;;;16.90;59.90;;;;;;20871701;28;19912;-74
2022/05/29 11:05:11;;;;;;;;;;;16.90;60.10;;;;;;20856298;28;19912;-74
2022/05/29 11:15:15;;;;;;;;;;;16.90;60.10;;;;;;20887360;28;19960;-73
2022/05/29 11:25:28;;;;;;;;;;;17.00;60.30;;;;;;20871486;28;19921;-73
2022/05/29 11:35:48;;;;;;;;;;;16.90;60.50;;;;;;20904954;28;19913;-75
2022/05/29 11:56:16;;;;;;;;;;;16.90;61.60;;;;;;20892266;28;20350;-77
2022/05/29 12:06:20;;;;;;;;;;;16.90;61.70;;;;;;20916117;28;20340;-69
2022/05/29 12:16:20;;;;;;;;;;;16.90;61.90;;;;;;20926727;28;20586;-70
2022/05/29 12:26:25;;;;;;;;;;;16.90;62.20;;;;;;20856994;28;19924;-70
2022/05/29 12:36:44;;;;;;;;;;;16.90;62.20;;;;;;20883821;28;20507;-71
2022/05/29 12:46:59;;;;;;;;;;;17.00;62.00;;;;;;20899677;28;19952;-72
2022/05/29 12:57:29;;;;;;;;;;;17.00;62.10;;;;;;20881175;28;20015;-71
2022/05/29 13:07:53;;;;;;;;;;;16.90;62.40;;;;;;20872103;28;19912;-71
2022/05/29 13:17:57;;;;;;;;;;;16.90;62.80;;;;;;20886781;28;20224;-72
2022/05/29 13:27:58;;;;;;;;;;;16.90;62.80;;;;;;20895028;28;19974;-76
2022/05/29 13:37:58;;;;;;;;;;;16.90;63.00;;;;;;20888903;28;19913;-73
2022/05/29 13:48:03;;;;;;;;;;;16.90;63.10;;;;;;20839120;28;19925;-74
2022/05/29 14:08:49;;;;;;;;;;;16.90;63.30;;;;;;20843668;28;19916;-73
2022/05/29 14:18:57;;;;;;;;;;;16.90;63.30;;;;;;20825905;28;19924;-73
2022/05/29 14:28:59;;;;;;;;;;;16.90;63.40;;;;;;20860429;28;19919;-73
2022/05/29 14:39:20;;;;;;;;;;;16.90;63.60;;;;;;20888640;28;19993;-80
2022/05/29 14:49:22;;;;;;;;;;;16.90;63.50;;;;;;20892044;28;20432;-79
2022/05/29 14:59:27;;;;;;;;;;;16.90;63.50;;;;;;20876204;28;19912;-80
2022/05/29 15:30:13;;;;;;;;;;;16.80;63.40;;;;;;20888903;28;20272;-70
2022/05/29 15:40:27;;;;;;;;;;;16.80;63.40;;;;;;20887967;28;20273;-74
2022/05/29 15:50:33;;;;;;;;;;;16.80;63.50;;;;;;20854968;28;19935;-80
2022/05/29 16:00:34;;;;;;;;;;;16.90;63.60;;;;;;20870111;28;20320;-81
2022/05/29 16:10:34;;;;;;;;;;;16.80;63.50;;;;;;20885721;28;19974;-79
2022/05/29 16:20:42;;;;;;;;;;;16.80;63.40;;;;;;20877876;28;20331;-80
2022/05/29 16:30:51;;;;;;;;;;;16.80;63.40;;;;;;20890272;28;19962;-74
2022/05/29 16:51:53;;;;;;;;;;;16.80;63.40;;;;;;20706816;28;19966;-76
2022/05/29 17:01:57;;;;;;;;;;;16.80;64.10;;;;;;20896192;28;19913;-74
2022/05/29 17:11:58;;;;;;;;;;;16.90;64.20;;;;;;20877878;28;20004;-74
2022/05/29 17:22:11;;;;;;;;;;;16.80;63.90;;;;;;20892943;28;20012;-71
2022/05/29 17:32:16;;;;;;;;;;;16.90;63.70;;;;;;20895745;28;19909;-74
2022/05/29 17:42:17;;;;;;;;;;;16.90;63.60;;;;;;20876852;28;19913;-73
2022/05/29 17:52:36;;;;;;;;;;;17.00;63.30;;;;;;20865451;28;20392;-73
2022/05/29 18:02:37;;;;;;;;;;;17.00;63.00;;;;;;20891078;28;19912;-73
2022/05/29 18:12:37;;;;;;;;;;;16.90;62.80;;;;;;20888303;28;19932;-74
2022/05/29 18:22:38;;;;;;;;;;;16.90;62.70;;;;;;20890407;28;19924;-74
2022/05/29 18:32:38;;;;;;;;;;;16.80;62.60;;;;;;20868967;28;20000;-74
2022/05/29 18:42:39;;;;;;;;;;;16.80;62.60;;;;;;20854817;28;19920;-73
2022/05/29 18:52:40;;;;;;;;;;;16.80;62.50;;;;;;20887834;28;19919;-73
2022/05/29 19:02:41;;;;;;;;;;;16.80;62.50;;;;;;20821069;28;19956;-74
2022/05/29 19:12:42;;;;;;;;;;;16.80;62.50;;;;;;20886560;28;19916;-74
2022/05/29 19:22:42;;;;;;;;;;;16.80;62.50;;;;;;20853020;28;19948;-74
2022/05/29 19:32:43;;;;;;;;;;;16.80;62.40;;;;;;20852489;28;19916;-74
2022/05/29 19:42:44;;;;;;;;;;;16.80;62.40;;;;;;20883577;28;20011;-74
2022/05/29 19:52:44;;;;;;;;;;;16.70;62.20;;;;;;20850694;28;19966;-74
2022/05/29 20:02:45;;;;;;;;;;;16.70;62.30;;;;;;20866912;28;20265;-75
2022/05/29 20:12:47;;;;;;;;;;;16.70;62.20;;;;;;20867292;28;19913;-74
2022/05/29 20:22:48;;;;;;;;;;;16.70;62.20;;;;;;20880582;28;19947;-74
2022/05/29 20:32:48;;;;;;;;;;;16.70;62.10;;;;;;20883589;28;19909;-74
2022/05/29 20:42:50;;;;;;;;;;;16.70;62.20;;;;;;20897666;28;19912;-74
2022/05/29 20:52:50;;;;;;;;;;;16.60;62.00;;;;;;20897426;28;19990;-75
2022/05/29 21:02:51;;;;;;;;;;;16.70;62.10;;;;;;20880151;28;20375;-75
2022/05/29 21:12:51;;;;;;;;;;;16.70;62.10;;;;;;20879456;28;19923;-75
2022/05/29 21:22:52;;;;;;;;;;;16.70;62.10;;;;;;20882303;28;19926;-75
2022/05/29 21:32:52;;;;;;;;;;;16.60;62.00;;;;;;20879227;28;19955;-75
2022/05/29 21:42:53;;;;;;;;;;;16.60;62.00;;;;;;20878938;28;19943;-74
2022/05/29 21:52:54;;;;;;;;;;;16.60;62.00;;;;;;20879324;28;20321;-74
2022/05/29 22:02:54;;;;;;;;;;;16.60;62.00;;;;;;20912045;28;19919;-74
2022/05/29 22:12:55;;;;;;;;;;;16.60;61.90;;;;;;20894615;28;20254;-74
2022/05/29 22:22:55;;;;;;;;;;;16.60;61.90;;;;;;20876591;28;19916;-74
2022/05/29 22:33:02;;;;;;;;;;;16.60;61.90;;;;;;20875328;28;20260;-74
2022/05/29 22:43:03;;;;;;;;;;;16.60;61.80;;;;;;20873998;28;20382;-74
2022/05/29 22:53:30;;;;;;;;;;;16.60;61.80;;;;;;20871295;28;19948;-74
2022/05/29 23:03:42;;;;;;;;;;;16.60;61.80;;;;;;20885506;28;19913;-74
2022/05/29 23:13:43;;;;;;;;;;;16.60;61.80;;;;;;20889175;28;19913;-74
2022/05/29 23:23:44;;;;;;;;;;;16.60;61.80;;;;;;20951062;28;20007;-75
2022/05/29 23:33:44;;;;;;;;;;;16.50;61.70;;;;;;20971221;28;19908;-75
2022/05/29 23:43:45;;;;;;;;;;;16.50;61.70;;;;;;20969984;28;19913;-75
2022/05/29 23:53:45;;;;;;;;;;;16.50;61.60;;;;;;20959670;28;20341;-74
